Time;durP1;ratioP1;P1;durP2;ratioP2;P2;SDS_P1;SDS_P2;PMS_P1;PMS_P2;Temp;Humidity;BMP_temperature;BMP_pressure;BME280_temperature;BME280_humidity;BME280_pressure;Samples;Min_cycle;Max_cycle;Signal;HPM_P1;HPM_P2
2021/10/12 00:00:12;;;;;;;28.70;12.00;;;;;;;10.71;49.94;99469.92;27238;1218;3026515;-70
2021/10/12 00:02:43;;;;;;;20.50;10.60;;;;;;;10.65;50.26;99472.02;27191;1219;3051293;-67
2021/10/12 00:05:13;;;;;;;23.90;11.00;;;;;;;10.63;50.27;99467.10;27249;1219;3026080;-69
2021/10/12 00:07:44;;;;;;;24.50;11.90;;;;;;;10.62;50.31;99466.79;27232;1219;3058741;-67
2021/10/12 00:10:13;;;;;;;22.30;11.90;;;;;;;10.61;50.22;99466.70;27243;1219;3026296;-71
2021/10/12 00:12:42;;;;;;;23.00;10.70;;;;;;;10.66;49.75;99469.88;27238;1218;3026831;-68
2021/10/12 00:15:11;;;;;;;24.00;10.50;;;;;;;10.69;49.82;99467.25;27246;1218;3056006;-71
2021/10/12 00:17:40;;;;;;;23.30;10.70;;;;;;;10.74;49.76;99460.80;27226;1219;3027591;-71
2021/10/12 00:20:09;;;;;;;24.50;10.90;;;;;;;10.77;50.06;99458.91;27267;1218;3051532;-70
2021/10/12 00:22:38;;;;;;;23.20;11.10;;;;;;;10.77;50.16;99453.84;27201;1218;3028157;-70
2021/10/12 00:25:07;;;;;;;25.50;11.10;;;;;;;10.79;50.17;99450.69;27227;1218;3026224;-68
2021/10/12 00:27:37;;;;;;;28.10;11.60;;;;;;;10.84;50.17;99456.21;27209;1218;3054169;-71
2021/10/12 00:30:06;;;;;;;29.30;11.20;;;;;;;10.86;50.10;99455.37;27213;1217;3027347;-73
2021/10/12 00:32:36;;;;;;;26.90;11.40;;;;;;;10.86;50.54;99452.57;27195;1217;3054187;-69
2021/10/12 00:35:06;;;;;;;24.50;11.10;;;;;;;10.87;50.56;99449.36;27246;1218;3026309;-65
2021/10/12 00:37:34;;;;;;;29.50;11.90;;;;;;;10.87;50.67;99445.30;27250;1219;3048479;-70
2021/10/12 00:40:05;;;;;;;25.90;11.20;;;;;;;10.86;50.85;99444.16;27228;1218;3027271;-70
2021/10/12 00:42:35;;;;;;;30.50;11.40;;;;;;;10.90;50.32;99445.27;27256;1218;3028085;-70
2021/10/12 00:45:06;;;;;;;25.80;10.90;;;;;;;10.95;50.20;99444.99;27221;1219;3026457;-67
2021/10/12 00:47:36;;;;;;;23.60;12.50;;;;;;;10.96;50.20;99443.70;27223;1219;3027050;-70
2021/10/12 00:50:56;;;;;;;30.80;12.20;;;;;;;10.99;50.49;99438.23;34373;1218;3027790;-69
2021/10/12 00:53:25;;;;;;;31.60;14.50;;;;;;;11.21;49.81;99440.93;27160;1221;3026602;-68
2021/10/12 00:55:54;;;;;;;26.60;10.90;;;;;;;11.41;49.16;99438.20;27228;1219;3026017;-71
2021/10/12 00:58:23;;;;;;;24.40;11.40;;;;;;;11.28;49.63;99436.09;27200;1217;3025652;-70
2021/10/12 01:00:52;;;;;;;25.50;11.10;;;;;;;11.19;49.93;99435.23;27201;1220;3050880;-70
2021/10/12 01:03:21;;;;;;;25.40;11.50;;;;;;;11.12;50.45;99432.51;27224;1219;3026980;-68
2021/10/12 01:05:50;;;;;;;25.40;11.10;;;;;;;11.04;50.64;99431.11;27244;1218;3026077;-70
2021/10/12 01:08:19;;;;;;;27.40;10.90;;;;;;;10.99;50.92;99435.27;27291;1217;3051101;-68
2021/10/12 01:10:48;;;;;;;34.10;12.00;;;;;;;10.91;51.32;99437.33;27227;1218;3026720;-72
2021/10/12 01:13:37;;;;;;;25.50;11.50;;;;;;;10.82;51.72;99429.83;27181;1219;3049257;-66
2021/10/12 01:16:07;;;;;;;19.90;10.30;;;;;;;10.78;51.78;99427.80;27272;1218;3026098;-68
2021/10/12 01:18:37;;;;;;;28.60;11.50;;;;;;;10.76;51.78;99424.27;27236;1219;3026921;-70
2021/10/12 01:21:06;;;;;;;26.70;10.80;;;;;;;10.71;52.28;99422.47;27204;1218;3028958;-70
2021/10/12 01:23:35;;;;;;;25.50;12.40;;;;;;;10.68;52.29;99420.70;27207;1219;3054208;-69
2021/10/12 01:26:04;;;;;;;25.30;11.40;;;;;;;10.64;52.39;99420.60;27245;1218;3026210;-71
2021/10/12 01:28:34;;;;;;;18.80;10.90;;;;;;;10.62;52.80;99422.02;27263;1218;3053116;-69
2021/10/12 01:31:03;;;;;;;21.40;11.60;;;;;;;10.55;53.07;99423.23;27237;1219;3026159;-71
2021/10/12 01:33:32;;;;;;;22.10;11.10;;;;;;;10.50;53.21;99424.10;27219;1219;3069940;-68
2021/10/12 01:36:01;;;;;;;23.00;10.20;;;;;;;10.47;53.41;99417.30;27220;1219;3028032;-68
2021/10/12 01:38:32;;;;;;;25.40;10.80;;;;;;;10.47;53.38;99422.52;27201;1219;3049475;-72
2021/10/12 01:41:01;;;;;;;23.50;10.90;;;;;;;10.43;53.60;99417.02;27204;1218;3026597;-68
2021/10/12 01:43:32;;;;;;;23.20;11.60;;;;;;;10.41;53.79;99416.26;27239;1217;3026220;-71
2021/10/12 01:46:02;;;;;;;24.80;10.70;;;;;;;10.37;54.02;99412.98;27243;1211;3025950;-66
2021/10/12 01:48:32;;;;;;;23.70;11.60;;;;;;;10.30;54.15;99410.20;27204;1220;3070178;-73
2021/10/12 01:51:01;;;;;;;26.50;11.60;;;;;;;10.26;54.29;99407.63;27244;1210;3026866;-69
2021/10/12 01:53:30;;;;;;;30.30;12.10;;;;;;;10.23;54.73;99409.59;27176;1217;3026451;-70
2021/10/12 01:55:59;;;;;;;27.80;11.90;;;;;;;10.21;54.40;99407.58;27241;1218;3026327;-66
2021/10/12 01:58:28;;;;;;;32.40;12.20;;;;;;;10.23;54.30;99407.14;27230;1218;3025596;-68
2021/10/12 02:00:58;;;;;;;34.70;11.60;;;;;;;10.21;54.23;99404.29;27250;1219;3052976;-70
2021/10/12 02:03:27;;;;;;;28.70;11.30;;;;;;;10.15;54.81;99408.98;27224;1219;3027332;-71
2021/10/12 02:05:56;;;;;;;22.50;11.40;;;;;;;10.13;54.59;99405.08;27247;1219;3026254;-68
2021/10/12 02:08:25;;;;;;;26.60;11.80;;;;;;;10.14;54.27;99393.14;27221;1219;3053575;-72
2021/10/12 02:10:54;;;;;;;24.70;11.90;;;;;;;10.11;54.85;99394.54;27233;1219;3026301;-68
2021/10/12 02:13:23;;;;;;;25.80;11.50;;;;;;;10.10;54.30;99391.45;27234;1219;3048331;-71
2021/10/12 02:15:52;;;;;;;26.10;10.80;;;;;;;10.13;54.09;99391.13;27228;1219;3026095;-69
2021/10/12 02:18:21;;;;;;;25.60;11.30;;;;;;;10.11;54.48;99389.47;27188;1219;3070417;-71
2021/10/12 02:20:50;;;;;;;26.20;11.70;;;;;;;10.09;54.40;99388.88;27229;1219;3026198;-68
2021/10/12 02:23:19;;;;;;;27.20;11.00;;;;;;;10.09;54.46;99384.37;27203;1219;3049727;-70
2021/10/12 02:25:48;;;;;;;30.70;11.20;;;;;;;10.05;54.50;99385.45;27215;1219;3026059;-67
2021/10/12 02:28:17;;;;;;;25.90;11.30;;;;;;;10.01;55.04;99380.24;27233;1219;3054417;-72
2021/10/12 02:30:46;;;;;;;22.30;10.70;;;;;;;9.98;54.95;99375.52;27231;1217;3026172;-70
2021/10/12 02:33:15;;;;;;;25.10;11.70;;;;;;;9.97;55.29;99378.21;27206;1218;3049044;-73
2021/10/12 02:35:43;;;;;;;28.50;12.30;;;;;;;9.92;55.61;99371.15;27233;1218;3028346;-74
2021/10/12 02:38:12;;;;;;;28.00;11.30;;;;;;;9.90;55.71;99373.73;27228;1218;3057958;-70
2021/10/12 02:40:42;;;;;;;27.80;10.90;;;;;;;9.86;55.90;99367.34;27226;1218;3025995;-70
2021/10/12 02:43:11;;;;;;;28.80;11.80;;;;;;;9.83;55.76;99361.05;27219;1220;3026230;-70
2021/10/12 02:45:40;;;;;;;24.50;11.30;;;;;;;9.78;56.12;99360.62;27243;1218;3026382;-68
2021/10/12 02:48:09;;;;;;;27.10;11.50;;;;;;;9.73;56.35;99361.83;27245;1219;3048882;-70
2021/10/12 02:50:39;;;;;;;25.40;11.10;;;;;;;9.67;56.85;99355.50;27255;1219;3026456;-67
2021/10/12 02:53:07;;;;;;;23.00;11.80;;;;;;;9.62;56.89;99353.53;27241;1218;3055680;-71
2021/10/12 02:55:37;;;;;;;28.20;11.00;;;;;;;9.63;56.76;99351.02;27243;1219;3028524;-66
2021/10/12 02:58:06;;;;;;;31.10;11.70;;;;;;;9.67;56.34;99346.22;27199;1218;3051742;-71
2021/10/12 03:00:35;;;;;;;31.00;12.60;;;;;;;9.66;56.73;99342.95;27226;1219;3027387;-73
2021/10/12 03:03:08;;;;;;;24.30;11.00;;;;;;;9.63;56.78;99343.84;27184;1219;3027121;-75
2021/10/12 03:05:37;;;;;;;31.80;11.20;;;;;;;9.65;56.29;99345.29;27214;1218;3028734;-72
2021/10/12 03:08:06;;;;;;;23.10;11.70;;;;;;;9.64;56.72;99345.55;27228;1211;3026238;-72
2021/10/12 03:10:35;;;;;;;26.70;11.50;;;;;;;9.59;57.25;99347.23;27196;1219;3026134;-72
2021/10/12 03:13:04;;;;;;;26.50;11.60;;;;;;;9.56;57.10;99344.60;27210;1219;3054593;-66
2021/10/12 03:15:34;;;;;;;31.30;12.20;;;;;;;9.52;57.28;99342.92;27187;1219;3026303;-72
2021/10/12 03:18:04;;;;;;;30.30;11.90;;;;;;;9.50;57.35;99342.14;27198;1219;3027055;-69
2021/10/12 03:20:32;;;;;;;25.70;11.10;;;;;;;9.49;57.43;99339.96;27220;1218;3026036;-69
2021/10/12 03:23:01;;;;;;;26.30;10.60;;;;;;;9.49;57.15;99337.14;27244;1218;3049928;-68
2021/10/12 03:25:30;;;;;;;25.20;11.30;;;;;;;9.47;57.60;99335.34;27219;1219;3026957;-72
2021/10/12 03:28:00;;;;;;;29.70;11.90;;;;;;;9.40;58.08;99335.36;27249;1218;3054741;-70
2021/10/12 03:30:28;;;;;;;25.50;11.30;;;;;;;9.36;57.89;99329.30;27238;1217;3027381;-65
2021/10/12 03:32:59;;;;;;;34.70;11.10;;;;;;;9.36;58.03;99329.14;27206;1218;3051335;-74
2021/10/12 03:35:36;;;;;;;34.50;11.10;;;;;;;9.34;58.42;99329.05;27218;1219;3026276;-67
2021/10/12 03:38:05;;;;;;;30.30;11.20;;;;;;;9.33;58.30;99329.29;27244;1219;3055188;-75
2021/10/12 03:40:34;;;;;;;21.20;11.80;;;;;;;9.34;58.16;99327.68;27236;1218;3026265;-66
2021/10/12 03:43:03;;;;;;;19.70;10.50;;;;;;;9.38;57.93;99326.92;27222;1218;3052633;-72
2021/10/12 03:45:32;;;;;;;26.80;11.40;;;;;;;9.38;58.52;99331.10;27202;1218;3027771;-71
2021/10/12 03:48:01;;;;;;;30.80;11.20;;;;;;;9.34;58.42;99332.36;27206;1219;3050914;-70
2021/10/12 03:50:30;;;;;;;29.90;11.30;;;;;;;9.33;58.65;99333.12;27259;1218;3026282;-74
2021/10/12 03:52:59;;;;;;;27.00;11.90;;;;;;;9.30;58.95;99334.55;27250;1217;3046799;-69
2021/10/12 03:55:28;;;;;;;22.10;11.60;;;;;;;9.28;59.25;99336.42;27239;1218;3029380;-74
2021/10/12 03:57:57;;;;;;;23.40;12.00;;;;;;;9.25;59.48;99333.26;27203;1218;3070516;-69
2021/10/12 04:00:26;;;;;;;26.20;11.90;;;;;;;9.21;59.87;99333.67;27234;1218;3029166;-70
2021/10/12 04:02:55;;;;;;;27.00;11.80;;;;;;;9.21;59.85;99332.45;27253;1218;3026076;-67
2021/10/12 04:05:24;;;;;;;24.50;12.20;;;;;;;9.22;60.09;99332.92;27181;1218;3067712;-74
2021/10/12 04:07:53;;;;;;;28.80;12.20;;;;;;;9.23;60.08;99333.20;27230;1219;3026506;-68
2021/10/12 04:10:24;;;;;;;29.70;12.10;;;;;;;9.25;60.38;99334.16;27254;1218;3052196;-71
2021/10/12 04:12:52;;;;;;;24.80;12.20;;;;;;;9.27;60.27;99334.02;27251;1212;3025730;-69
2021/10/12 04:15:21;;;;;;;27.10;11.90;;;;;;;9.28;60.46;99331.67;27226;1218;3051428;-74
2021/10/12 04:17:52;;;;;;;29.30;12.80;;;;;;;9.32;60.13;99329.73;27281;1219;3026555;-69
2021/10/12 04:20:24;;;;;;;28.90;12.60;;;;;;;9.34;60.17;99333.08;27194;1217;3026082;-71
2021/10/12 04:22:55;;;;;;;29.20;13.10;;;;;;;9.36;60.71;99341.52;27254;1218;3054451;-71
2021/10/12 04:25:24;;;;;;;30.90;12.60;;;;;;;9.43;60.30;99345.52;27262;1219;3026096;-71
2021/10/12 04:27:53;;;;;;;23.50;13.60;;;;;;;9.49;60.23;99345.02;27208;1219;3026272;-70
2021/10/12 04:30:22;;;;;;;34.50;14.20;;;;;;;9.54;60.12;99342.96;27244;1219;3055757;-69
2021/10/12 04:32:51;;;;;;;31.40;13.70;;;;;;;9.59;59.77;99336.38;27279;1218;3026015;-68
2021/10/12 04:35:20;;;;;;;29.20;13.10;;;;;;;9.63;59.55;99335.28;27222;1218;3051401;-68
2021/10/12 04:37:49;;;;;;;25.40;12.00;;;;;;;9.69;59.24;99334.20;27240;1219;3025986;-68
2021/10/12 04:40:18;;;;;;;26.50;11.60;;;;;;;9.73;59.14;99336.95;27237;1217;3055836;-66
2021/10/12 04:42:47;;;;;;;27.80;12.10;;;;;;;9.77;59.10;99333.91;27251;1219;3026477;-70
2021/10/12 04:45:16;;;;;;;22.70;10.90;;;;;;;9.82;58.81;99334.85;27207;1219;3053634;-71
2021/10/12 04:47:45;;;;;;;29.20;10.80;;;;;;;9.84;58.97;99337.90;27229;1218;3026477;-67
2021/10/12 04:50:15;;;;;;;23.50;11.30;;;;;;;9.87;58.68;99337.17;27204;1219;3050958;-74
2021/10/12 04:52:45;;;;;;;27.30;12.70;;;;;;;9.90;58.78;99331.02;27230;1218;3026425;-71
2021/10/12 04:55:14;;;;;;;23.80;11.20;;;;;;;9.95;58.52;99328.84;27215;1218;3026428;-73
2021/10/12 04:57:43;;;;;;;26.30;13.70;;;;;;;9.96;58.64;99328.23;27216;1218;3026202;-70
2021/10/12 05:00:12;;;;;;;27.70;12.30;;;;;;;10.01;58.37;99326.20;27259;1218;3054034;-70
2021/10/12 05:02:42;;;;;;;35.40;14.00;;;;;;;10.05;58.14;99322.08;27261;1212;3026164;-69
2021/10/12 05:05:11;;;;;;;37.40;15.30;;;;;;;10.07;58.53;99319.01;27226;1219;3054353;-69
2021/10/12 05:08:00;;;;;;;36.00;14.90;;;;;;;10.14;58.10;99317.52;27282;1219;3054801;-70
2021/10/12 05:10:29;;;;;;;34.40;14.40;;;;;;;10.16;58.63;99315.34;27244;1219;3027417;-69
2021/10/12 05:12:58;;;;;;;26.40;13.70;;;;;;;10.21;58.39;99320.79;27233;1219;3025872;-69
2021/10/12 05:15:29;;;;;;;36.00;14.40;;;;;;;10.25;58.49;99323.11;27225;1219;3054085;-69
2021/10/12 05:18:02;;;;;;;28.80;14.80;;;;;;;10.31;58.47;99320.73;27252;1218;3026004;-64
2021/10/12 05:20:31;;;;;;;34.30;16.80;;;;;;;10.29;59.11;99320.28;27229;1219;3026167;-69
2021/10/12 05:23:00;;;;;;;30.20;15.10;;;;;;;10.28;59.43;99324.23;27240;1219;3025948;-69
2021/10/12 05:25:29;;;;;;;28.20;13.00;;;;;;;10.32;59.38;99315.54;27236;1219;3026790;-69
2021/10/12 05:27:58;;;;;;;24.50;11.40;;;;;;;10.37;59.44;99315.79;27249;1218;3049139;-70
2021/10/12 05:30:28;;;;;;;29.10;11.60;;;;;;;10.41;59.69;99316.75;27228;1219;3026687;-75
2021/10/12 05:32:57;;;;;;;21.50;11.30;;;;;;;10.47;59.77;99317.85;27248;1218;3028043;-74
2021/10/12 05:35:26;;;;;;;27.10;10.00;;;;;;;10.49;60.18;99316.63;27256;1218;3049876;-73
2021/10/12 05:37:55;;;;;;;16.60;10.30;;;;;;;10.51;60.16;99317.92;27245;1212;3026949;-70
2021/10/12 05:40:24;;;;;;;27.50;10.50;;;;;;;10.48;60.65;99317.76;27216;1218;3055856;-68
2021/10/12 05:42:53;;;;;;;23.80;10.20;;;;;;;10.43;60.97;99315.98;27270;1218;3026030;-72
2021/10/12 05:45:22;;;;;;;21.80;10.20;;;;;;;10.39;61.45;99310.59;27244;1219;3053841;-67
2021/10/12 05:47:51;;;;;;;21.40;10.60;;;;;;;10.44;61.25;99311.38;27236;1217;3029119;-71
2021/10/12 05:50:20;;;;;;;24.30;12.50;;;;;;;10.46;61.40;99308.80;27259;1217;3049705;-70
2021/10/12 05:55:53;;;;;;;23.60;10.90;;;;;;;10.44;61.88;99309.08;27242;1218;3056355;-69
2021/10/12 06:01:02;;;;;;;29.40;11.30;;;;;;;10.52;62.04;99301.39;27263;1219;3052481;-69
2021/10/12 06:03:32;;;;;;;25.00;11.80;;;;;;;10.59;62.16;99303.08;27256;1219;3025871;-67
2021/10/12 06:06:02;;;;;;;27.20;10.90;;;;;;;10.65;62.05;99302.13;27247;1219;3026391;-73
2021/10/12 06:08:32;;;;;;;28.40;11.00;;;;;;;10.74;61.88;99299.80;27285;1218;3027105;-65
2021/10/12 06:11:02;;;;;;;22.60;10.40;;;;;;;10.79;62.24;99298.31;27269;1219;3025844;-69
2021/10/12 06:13:33;;;;;;;27.60;10.20;;;;;;;10.87;62.06;99298.27;27268;1219;3027081;-69
2021/10/12 06:16:02;;;;;;;19.20;9.70;;;;;;;10.96;61.94;99296.36;27248;1219;3027846;-68
2021/10/12 06:18:31;;;;;;;23.50;10.30;;;;;;;11.04;61.95;99294.57;27226;1218;3026150;-70
2021/10/12 06:21:00;;;;;;;20.60;9.60;;;;;;;11.11;61.96;99294.85;27237;1218;3053286;-70
2021/10/12 06:23:29;;;;;;;29.70;10.20;;;;;;;11.16;62.10;99297.28;27268;1210;3025796;-71
2021/10/12 06:25:58;;;;;;;22.00;9.60;;;;;;;11.22;61.89;99294.95;27246;1217;3053631;-70
2021/10/12 06:28:28;;;;;;;27.80;8.70;;;;;;;11.29;61.93;99294.86;27215;1212;3026240;-63
2021/10/12 06:30:58;;;;;;;26.00;9.50;;;;;;;11.36;62.07;99295.65;27225;1218;3047682;-72
2021/10/12 06:33:27;;;;;;;28.50;9.60;;;;;;;11.45;62.11;99296.64;27245;1218;3026857;-68
2021/10/12 06:35:56;;;;;;;17.70;9.30;;;;;;;11.55;61.98;99292.43;27231;1220;3025791;-72
2021/10/12 06:38:25;;;;;;;20.70;8.90;;;;;;;11.63;61.80;99289.83;27254;1219;3047746;-69
2021/10/12 06:40:54;;;;;;;23.60;8.50;;;;;;;11.69;61.37;99289.05;27265;1219;3026650;-72
2021/10/12 06:43:23;;;;;;;24.40;7.80;;;;;;;11.79;61.43;99293.13;27141;1219;3069849;-69
2021/10/12 06:45:52;;;;;;;18.20;9.10;;;;;;;11.86;61.47;99292.77;27242;1218;3026384;-70
2021/10/12 06:48:21;;;;;;;16.60;7.50;;;;;;;11.98;61.05;99286.58;27212;1219;3049891;-75
2021/10/12 06:50:50;;;;;;;20.60;8.00;;;;;;;12.08;60.91;99283.61;27214;1218;3025951;-64
2021/10/12 06:53:19;;;;;;;17.60;8.60;;;;;;;12.16;60.88;99288.15;27177;1216;3026335;-69
2021/10/12 06:55:49;;;;;;;15.70;7.50;;;;;;;12.18;61.21;99289.58;27199;1218;3053422;-75
2021/10/12 06:58:17;;;;;;;13.30;7.20;;;;;;;12.21;60.98;99282.70;27208;1211;3025991;-69
2021/10/12 07:00:47;;;;;;;12.70;7.50;;;;;;;12.25;60.80;99280.98;27231;1218;3052270;-72
2021/10/12 07:03:16;;;;;;;18.60;8.00;;;;;;;12.35;60.48;99279.59;27176;1219;3027833;-69
2021/10/12 07:05:45;;;;;;;19.80;7.80;;;;;;;12.47;59.87;99275.60;27240;1218;3051589;-69
2021/10/12 07:08:14;;;;;;;24.50;7.90;;;;;;;12.55;60.32;99277.28;27246;1219;3026283;-70
2021/10/12 07:10:43;;;;;;;17.40;7.20;;;;;;;12.66;60.06;99278.61;27198;1218;3057573;-73
2021/10/12 07:13:13;;;;;;;17.40;7.50;;;;;;;12.73;60.02;99275.61;27227;1212;3025997;-63
2021/10/12 07:15:42;;;;;;;17.60;7.20;;;;;;;12.89;59.46;99272.23;27195;1219;3052001;-74
2021/10/12 07:18:12;;;;;;;17.40;8.00;;;;;;;12.98;59.44;99269.29;27209;1218;3026221;-70
2021/10/12 07:20:40;;;;;;;18.90;7.50;;;;;;;13.04;59.35;99266.51;27230;1219;3050542;-71
2021/10/12 07:23:09;;;;;;;14.50;7.30;;;;;;;13.11;59.37;99270.45;27256;1219;3026397;-74
2021/10/12 07:25:39;;;;;;;21.80;7.60;;;;;;;13.21;59.31;99270.55;27215;1219;3051022;-68
2021/10/12 07:28:08;;;;;;;12.90;7.10;;;;;;;13.34;58.99;99268.23;27223;1219;3027994;-72
2021/10/12 07:30:37;;;;;;;17.30;7.20;;;;;;;13.47;58.70;99269.16;27214;1219;3070239;-73
2021/10/12 07:33:06;;;;;;;15.80;7.10;;;;;;;13.60;58.49;99272.76;27203;1218;3027907;-72
2021/10/12 07:35:35;;;;;;;16.00;7.50;;;;;;;13.69;58.48;99273.55;27246;1219;3050422;-69
2021/10/12 07:38:04;;;;;;;15.90;6.50;;;;;;;13.76;58.27;99277.18;27214;1218;3025770;-72
2021/10/12 07:40:38;;;;;;;22.70;6.90;;;;;;;13.72;58.29;99271.85;27209;1219;3025924;-69
2021/10/12 07:43:08;;;;;;;18.20;6.70;;;;;;;13.82;57.93;99275.00;27250;1219;3026356;-68
2021/10/12 07:45:39;;;;;;;13.70;6.90;;;;;;;14.02;57.49;99274.83;27184;1219;3025684;-70
2021/10/12 07:48:08;;;;;;;15.40;6.30;;;;;;;14.05;57.40;99273.05;27219;1219;3026465;-68
2021/10/12 07:50:38;;;;;;;22.10;6.90;;;;;;;14.04;57.48;99276.96;27210;1218;3025971;-74
2021/10/12 07:53:07;;;;;;;26.30;7.20;;;;;;;14.24;57.22;99271.71;27207;1220;3027480;-70
2021/10/12 07:55:51;;;;;;;21.80;7.20;;;;;;;14.32;56.95;99267.23;27378;1217;3026477;-73
2021/10/12 07:58:20;;;;;;;23.00;7.40;;;;;;;14.36;56.63;99263.57;27229;1216;3052534;-71
2021/10/12 08:00:49;;;;;;;18.10;5.80;;;;;;;14.42;56.67;99261.86;27303;1217;3026201;-71
2021/10/12 08:03:18;;;;;;;26.70;6.80;;;;;;;14.53;56.57;99258.30;27280;1210;3055236;-69
2021/10/12 08:05:47;;;;;;;10.80;5.90;;;;;;;14.66;56.46;99257.35;27242;1217;3026119;-68
2021/10/12 08:08:16;;;;;;;14.20;6.20;;;;;;;14.80;55.60;99258.13;27288;1217;3026162;-69
2021/10/12 08:10:45;;;;;;;13.90;5.80;;;;;;;14.84;55.25;99249.66;27228;1219;3057666;-72
2021/10/12 08:13:35;;;;;;;14.40;6.70;;;;;;;14.90;55.50;99250.45;27229;1219;3049725;-71
2021/10/12 08:16:09;;;;;;;14.80;6.80;;;;;;;15.03;55.14;99244.95;27246;1219;3026512;-71
2021/10/12 08:18:38;;;;;;;18.10;6.60;;;;;;;15.15;55.02;99241.15;27324;1219;3052145;-74
2021/10/12 08:21:08;;;;;;;33.10;7.40;;;;;;;15.25;54.80;99240.65;27252;1210;3026177;-72
2021/10/12 08:23:38;;;;;;;16.60;6.70;;;;;;;15.32;54.63;99231.98;27277;1219;3052473;-65
2021/10/12 08:26:08;;;;;;;17.40;5.90;;;;;;;15.37;54.60;99231.17;27260;1217;3026445;-71
2021/10/12 08:28:36;;;;;;;15.90;7.00;;;;;;;15.50;54.45;99231.30;27250;1218;3048866;-67
2021/10/12 08:31:05;;;;;;;18.90;6.60;;;;;;;15.55;54.72;99227.27;27316;1208;3026613;-71
2021/10/12 08:33:36;;;;;;;14.90;7.10;;;;;;;15.59;54.83;99227.95;27260;1217;3058330;-71
2021/10/12 08:36:06;;;;;;;16.60;6.80;;;;;;;15.66;54.29;99227.18;27271;1218;3026583;-69
2021/10/12 08:38:35;;;;;;;12.50;5.70;;;;;;;15.83;54.15;99224.89;27284;1218;3028660;-66
2021/10/12 08:41:07;;;;;;;16.10;6.70;;;;;;;15.83;53.47;99220.20;27295;1218;3055207;-70
2021/10/12 08:43:37;;;;;;;16.10;6.70;;;;;;;16.01;53.74;99213.79;27287;1219;3026494;-72
2021/10/12 08:46:06;;;;;;;19.60;6.70;;;;;;;16.10;53.12;99210.86;27272;1218;3026775;-71
2021/10/12 08:48:37;;;;;;;13.90;7.50;;;;;;;16.20;52.96;99201.70;27269;1217;3026833;-69
2021/10/12 08:51:07;;;;;;;14.10;5.90;;;;;;;16.22;52.83;99195.83;27210;1217;3026174;-71
2021/10/12 08:53:37;;;;;;;10.80;6.00;;;;;;;16.24;52.74;99197.41;27273;1218;3026039;-72
2021/10/12 08:56:06;;;;;;;16.10;6.10;;;;;;;16.31;52.54;99192.40;27265;1217;3026849;-67
2021/10/12 08:58:37;;;;;;;15.80;6.80;;;;;;;16.45;52.35;99182.52;27249;1218;3070039;-67
2021/10/12 09:01:09;;;;;;;11.40;6.00;;;;;;;16.39;52.72;99180.23;27195;1217;3026720;-69
2021/10/12 09:06:33;;;;;;;16.50;5.50;;;;;;;16.61;52.03;99170.82;27232;1218;3052382;-66
2021/10/12 09:09:14;;;;;;;17.20;5.90;;;;;;;16.58;52.14;99166.29;27234;1209;3058500;-68
2021/10/12 09:11:44;;;;;;;20.20;6.10;;;;;;;16.56;52.31;99159.63;27179;1217;3052302;-69
2021/10/12 09:14:13;;;;;;;20.90;6.20;;;;;;;16.76;51.93;99156.58;27242;1217;3028551;-66
2021/10/12 09:16:44;;;;;;;15.40;7.50;;;;;;;16.88;52.22;99156.88;27252;1218;3058407;-69
2021/10/12 09:19:14;;;;;;;22.70;6.90;;;;;;;17.00;51.99;99149.99;27266;1217;3026737;-75
2021/10/12 09:21:45;;;;;;;20.70;7.20;;;;;;;17.17;51.64;99145.06;27268;1218;3026968;-71
2021/10/12 09:24:18;;;;;;;20.10;6.30;;;;;;;17.18;51.65;99144.95;27290;1217;3026607;-71
2021/10/12 09:27:05;;;;;;;14.50;6.60;;;;;;;17.33;51.34;99138.06;27233;1217;3026346;-68
2021/10/12 09:29:39;;;;;;;17.00;6.40;;;;;;;17.47;50.91;99134.48;27274;1217;3049506;-75
2021/10/12 09:32:09;;;;;;;18.00;6.00;;;;;;;17.47;50.57;99130.22;27251;1217;3054442;-68
2021/10/12 09:34:39;;;;;;;15.60;6.00;;;;;;;17.52;50.48;99127.30;27232;1209;3026421;-73
2021/10/12 09:37:08;;;;;;;18.70;6.20;;;;;;;17.64;50.24;99121.20;27229;1217;3028378;-69
2021/10/12 09:39:49;;;;;;;23.80;6.50;;;;;;;17.71;49.89;99120.27;27221;1215;3026476;-72
2021/10/12 09:42:21;;;;;;;15.60;6.00;;;;;;;17.74;49.87;99117.34;27229;1217;3054567;-70
2021/10/12 09:44:57;;;;;;;19.90;5.70;;;;;;;17.89;49.56;99115.57;27253;1218;3025886;-71
2021/10/12 09:47:27;;;;;;;12.50;5.20;;;;;;;18.01;49.29;99108.58;27236;1217;3051145;-72
2021/10/12 09:50:11;;;;;;;13.00;4.70;;;;;;;18.13;49.13;99103.41;27203;1217;3025908;-67
2021/10/12 09:52:45;;;;;;;12.70;4.80;;;;;;;18.15;48.39;99099.27;27206;1218;3053694;-67
2021/10/12 09:55:15;;;;;;;17.00;5.20;;;;;;;18.20;48.46;99092.62;27237;1217;3070484;-69
2021/10/12 09:57:44;;;;;;;16.30;5.40;;;;;;;17.99;48.79;99087.02;27209;1217;3028876;-66
2021/10/12 10:00:13;;;;;;;11.70;5.80;;;;;;;18.03;49.40;99089.10;27266;1219;3027908;-68
2021/10/12 10:02:42;;;;;;;14.30;5.90;;;;;;;18.08;48.90;99089.52;27223;1217;3067903;-69
2021/10/12 10:05:12;;;;;;;13.90;5.90;;;;;;;18.19;48.62;99091.69;27236;1217;3026350;-70
2021/10/12 10:07:46;;;;;;;17.40;5.50;;;;;;;18.38;48.56;99084.64;27275;1217;3028203;-69
2021/10/12 10:10:18;;;;;;;16.60;5.80;;;;;;;18.51;48.21;99083.33;27236;1218;3071121;-69
2021/10/12 10:12:48;;;;;;;17.60;5.70;;;;;;;18.62;48.13;99083.17;27216;1218;3025790;-74
2021/10/12 10:15:18;;;;;;;12.20;6.10;;;;;;;18.56;47.77;99075.77;27256;1218;3028071;-70
2021/10/12 10:17:50;;;;;;;9.40;5.40;;;;;;;18.48;48.04;99078.37;27230;1217;3026740;-73
2021/10/12 10:20:19;;;;;;;10.60;5.10;;;;;;;18.57;47.80;99073.52;27316;1219;3026281;-70
2021/10/12 10:22:51;;;;;;;10.50;4.70;;;;;;;18.43;47.90;99068.52;27260;1218;3026011;-68
2021/10/12 10:25:34;;;;;;;15.80;5.20;;;;;;;18.48;47.88;99059.66;27200;1217;3054287;-66
2021/10/12 10:28:15;;;;;;;8.10;4.60;;;;;;;18.62;47.57;99057.71;27285;1217;3055913;-67
2021/10/12 10:30:46;;;;;;;8.90;4.90;;;;;;;18.63;46.90;99054.15;27198;1217;3051863;-72
2021/10/12 10:33:26;;;;;;;9.40;4.10;;;;;;;18.64;47.13;99056.73;27225;1217;3025789;-69
2021/10/12 10:35:56;;;;;;;10.90;5.10;;;;;;;18.63;46.60;99049.10;27262;1217;3050975;-68
2021/10/12 10:38:32;;;;;;;12.00;5.40;;;;;;;18.75;46.81;99048.69;27261;1218;3026114;-71
2021/10/12 10:41:04;;;;;;;10.00;5.00;;;;;;;18.91;46.68;99047.08;27279;1218;3048302;-69
2021/10/12 10:43:49;;;;;;;11.00;4.80;;;;;;;19.16;45.64;99046.60;27259;1217;3026111;-68
2021/10/12 10:46:32;;;;;;;12.20;4.90;;;;;;;19.40;44.98;99044.51;27254;1218;3052172;-72
2021/10/12 10:49:16;;;;;;;12.70;5.50;;;;;;;19.52;44.99;99040.30;27262;1219;3058981;-70
2021/10/12 10:51:52;;;;;;;20.90;5.50;;;;;;;19.58;44.57;99034.59;27180;1217;3049176;-71
2021/10/12 10:54:37;;;;;;;14.60;5.80;;;;;;;19.58;44.64;99030.86;27202;1217;3055257;-70
2021/10/12 10:57:10;;;;;;;15.50;6.10;;;;;;;19.64;43.97;99032.08;27267;1217;3052680;-66
2021/10/12 10:59:40;;;;;;;14.70;5.50;;;;;;;19.57;43.37;99027.70;27241;1217;3071073;-66
2021/10/12 11:02:31;;;;;;;16.60;5.40;;;;;;;19.57;43.65;99024.09;27274;1209;3025825;-66
2021/10/12 11:05:00;;;;;;;9.80;6.10;;;;;;;19.41;43.19;99025.23;27207;1218;3054096;-71
2021/10/12 11:07:29;;;;;;;11.70;4.90;;;;;;;19.49;43.32;99022.43;27224;1217;3026119;-70
2021/10/12 11:10:00;;;;;;;11.10;4.60;;;;;;;19.54;43.06;99017.52;27288;1217;3026421;-69
2021/10/12 11:12:30;;;;;;;12.80;6.00;;;;;;;19.37;44.01;99019.13;27290;1208;3026105;-70
2021/10/12 11:15:12;;;;;;;13.00;5.20;;;;;;;19.23;44.56;99019.50;27288;1217;3054898;-72
2021/10/12 11:17:43;;;;;;;13.10;6.00;;;;;;;19.22;44.80;99016.20;27328;1217;3026771;-75
2021/10/12 11:20:14;;;;;;;13.20;4.70;;;;;;;19.34;44.69;99013.23;27275;1217;3052660;-71
2021/10/12 11:22:44;;;;;;;12.00;4.50;;;;;;;19.58;44.27;99013.73;27299;1217;3026418;-67
2021/10/12 11:25:13;;;;;;;11.40;4.70;;;;;;;19.82;44.12;98999.85;27237;1217;3026518;-74
2021/10/12 11:27:43;;;;;;;18.40;5.00;;;;;;;20.07;44.06;99002.48;27284;1218;3026352;-68
2021/10/12 11:30:14;;;;;;;10.60;5.10;;;;;;;20.30;43.53;98998.80;27347;1217;3052791;-65